Time;durP1;ratioP1;P1;durP2;ratioP2;P2;SDS_P1;SDS_P2;PMS_P1;PMS_P2;Temp;Humidity;BMP_temperature;BMP_pressure;BME280_temperature;BME280_humidity;BME280_pressure;Samples;Min_cycle;Max_cycle;Signal;HPM_P1;HPM_P2
2022/02/01 00:02:05;;;;;;;0.40;0.20;;;2.90;99.90;;;;;;5031470;28;20402;-74
2022/02/01 00:07:35;;;;;;;0.40;0.20;;;3.00;99.90;;;;;;5024584;28;20486;-76
2022/02/01 00:20:38;;;;;;;0.40;0.20;;;3.10;99.90;;;;;;5030571;28;20886;-77
2022/02/01 00:34:18;;;;;;;0.40;0.20;;;3.20;99.90;;;;;;5030169;28;20383;-75
2022/02/01 00:36:54;;;;;;;0.40;0.20;;;3.30;99.90;;;;;;5030660;28;20469;-76
2022/02/01 00:39:29;;;;;;;0.40;0.20;;;3.30;99.90;;;;;;5030242;28;20495;-76
2022/02/01 00:41:54;;;;;;;0.40;0.20;;;3.40;99.90;;;;;;5030790;28;20422;-76
2022/02/01 00:44:20;;;;;;;0.40;0.20;;;3.50;99.90;;;;;;5029614;28;20399;-77
2022/02/01 00:46:47;;;;;;;0.40;0.20;;;3.50;99.90;;;;;;5030395;28;20387;-77
2022/02/01 00:49:13;;;;;;;0.40;0.20;;;3.50;99.90;;;;;;5030120;28;20839;-77
2022/02/01 00:51:38;;;;;;;0.40;0.30;;;3.50;99.90;;;;;;5030641;28;20383;-78
2022/02/01 00:54:04;;;;;;;0.40;0.20;;;3.40;99.90;;;;;;5030881;28;20383;-78
2022/02/01 00:56:30;;;;;;;0.40;0.20;;;3.40;99.90;;;;;;5029013;28;20391;-79
2022/02/01 00:58:56;;;;;;;0.40;0.20;;;3.40;99.90;;;;;;5030361;28;20380;-79
2022/02/01 01:01:22;;;;;;;0.40;0.20;;;3.30;99.90;;;;;;5029720;28;20382;-79
2022/02/01 01:03:48;;;;;;;0.40;0.20;;;3.40;99.90;;;;;;5030541;28;20554;-80
2022/02/01 01:06:14;;;;;;;0.40;0.30;;;3.30;99.90;;;;;;5036393;28;20395;-79
2022/02/01 01:08:41;;;;;;;0.40;0.25;;;3.20;99.90;;;;;;5029988;28;20391;-80
2022/02/01 01:11:08;;;;;;;1.00;0.80;;;3.10;99.90;;;;;;5030056;28;20380;-79
2022/02/01 01:45:46;;;;;;;0.40;0.30;;;3.20;99.90;;;;;;5033818;28;20398;-77
2022/02/01 01:53:40;;;;;;;0.40;0.20;;;3.20;99.90;;;;;;5034111;28;20402;-76
2022/02/01 01:56:05;;;;;;;0.40;0.20;;;3.20;99.90;;;;;;5032472;28;21046;-76
2022/02/01 01:58:31;;;;;;;0.40;0.20;;;3.20;99.90;;;;;;5033735;28;20882;-77
2022/02/01 02:01:13;;;;;;;0.40;0.30;;;3.20;99.90;;;;;;5032730;28;20449;-76
2022/02/01 02:03:47;;;;;;;0.40;0.20;;;3.10;99.90;;;;;;5033617;28;20417;-76
2022/02/01 02:06:15;;;;;;;0.40;0.20;;;3.20;99.90;;;;;;5032939;28;20414;-78
2022/02/01 02:08:45;;;;;;;0.40;0.20;;;3.10;99.90;;;;;;5033641;28;20726;-77
2022/02/01 02:11:17;;;;;;;0.40;0.30;;;3.20;99.90;;;;;;5032794;28;20395;-78
2022/02/01 02:16:41;;;;;;;0.40;0.20;;;3.30;99.90;;;;;;5033117;28;20414;-77
2022/02/01 02:19:08;;;;;;;0.40;0.22;;;3.40;99.90;;;;;;5032737;28;20395;-77
2022/02/01 02:21:34;;;;;;;0.40;0.20;;;3.30;99.90;;;;;;5033059;28;20423;-78
2022/02/01 02:24:00;;;;;;;0.40;0.20;;;3.20;99.90;;;;;;5033170;28;20739;-77
2022/02/01 02:26:26;;;;;;;0.40;0.20;;;3.30;99.90;;;;;;5015501;28;20391;-76
2022/02/01 02:28:52;;;;;;;0.40;0.30;;;3.30;99.90;;;;;;5033577;28;20375;-77
2022/02/01 02:31:21;;;;;;;0.40;0.20;;;3.40;99.90;;;;;;5032767;28;20445;-76
2022/02/01 02:33:47;;;;;;;0.40;0.20;;;3.40;99.90;;;;;;5033006;28;20431;-76
2022/02/01 02:36:17;;;;;;;0.40;0.20;;;3.40;99.90;;;;;;5031951;28;20418;-76
2022/02/01 02:38:47;;;;;;;0.40;0.20;;;3.30;99.90;;;;;;5033355;28;20486;-77
2022/02/01 02:46:48;;;;;;;0.40;0.30;;;3.30;99.90;;;;;;5031399;28;20491;-75
2022/02/01 02:49:19;;;;;;;0.40;0.20;;;3.40;99.90;;;;;;5032891;28;20418;-76
2022/02/01 02:51:45;;;;;;;0.40;0.20;;;3.40;99.90;;;;;;5032655;28;20866;-77
2022/02/01 02:54:14;;;;;;;0.40;0.20;;;3.40;99.90;;;;;;5032894;28;20376;-77
2022/02/01 02:56:52;;;;;;;1.50;0.50;;;3.40;99.90;;;;;;5031808;28;20422;-75
2022/02/01 02:59:20;;;;;;;0.40;0.20;;;3.30;99.90;;;;;;5032334;28;20390;-76
2022/02/01 03:01:47;;;;;;;0.40;0.20;;;3.40;99.90;;;;;;5031872;28;21006;-76
2022/02/01 03:04:18;;;;;;;0.40;0.20;;;3.40;99.90;;;;;;5032460;28;20487;-75
2022/02/01 03:06:45;;;;;;;0.40;0.20;;;3.50;99.90;;;;;;5031964;28;20395;-74
2022/02/01 03:09:12;;;;;;;0.40;0.20;;;3.60;99.90;;;;;;5032395;28;20388;-76
2022/02/01 03:11:39;;;;;;;0.40;0.20;;;3.70;99.90;;;;;;5031500;28;20804;-78
2022/02/01 03:14:17;;;;;;;0.40;0.20;;;3.70;99.90;;;;;;5032140;28;20388;-71
2022/02/01 03:21:57;;;;;;;0.60;0.50;;;3.70;99.90;;;;;;5031504;28;21022;-74
2022/02/01 03:24:22;;;;;;;0.40;0.30;;;3.60;99.90;;;;;;5032298;28;20425;-74
2022/02/01 03:26:48;;;;;;;0.40;0.20;;;3.70;99.90;;;;;;5031321;28;20383;-75
2022/02/01 03:29:14;;;;;;;0.40;0.20;;;3.60;99.90;;;;;;5031386;28;20484;-76
2022/02/01 03:31:40;;;;;;;0.40;0.30;;;3.60;99.90;;;;;;5014164;28;20456;-77
2022/02/01 03:34:05;;;;;;;0.80;0.80;;;3.60;99.90;;;;;;5030909;28;20386;-77
2022/02/01 03:36:31;;;;;;;0.40;0.20;;;3.60;99.90;;;;;;5031821;28;20911;-74
2022/02/01 03:38:58;;;;;;;0.40;0.20;;;3.70;99.90;;;;;;5031014;28;20399;-74
2022/02/01 03:41:24;;;;;;;0.40;0.20;;;3.70;99.90;;;;;;5014377;28;20390;-77
2022/02/01 03:43:50;;;;;;;0.40;0.20;;;3.60;99.90;;;;;;5031350;28;20421;-76
2022/02/01 03:46:16;;;;;;;0.40;0.30;;;3.60;99.90;;;;;;5031170;28;20395;-75
2022/02/01 03:48:42;;;;;;;0.40;0.20;;;3.60;99.90;;;;;;5032055;28;20425;-75
2022/02/01 03:51:08;;;;;;;0.60;0.47;;;3.60;99.90;;;;;;5013219;28;20387;-76
2022/02/01 03:53:35;;;;;;;0.40;0.20;;;3.60;99.90;;;;;;5013802;28;20391;-76
2022/02/01 03:56:01;;;;;;;0.40;0.20;;;3.60;99.90;;;;;;5030739;28;20696;-76
2022/02/01 03:58:26;;;;;;;0.40;0.20;;;3.60;99.90;;;;;;5030862;28;20414;-77
2022/02/01 04:00:52;;;;;;;0.40;0.30;;;3.60;99.90;;;;;;5031213;28;20383;-77
2022/02/01 04:03:18;;;;;;;0.40;0.20;;;3.60;99.90;;;;;;5013048;28;20383;-75
2022/02/01 04:05:43;;;;;;;0.40;0.20;;;3.70;99.90;;;;;;5031591;28;20399;-75
2022/02/01 04:08:11;;;;;;;0.40;0.20;;;3.60;99.90;;;;;;5030446;28;20452;-75
2022/02/01 04:10:37;;;;;;;0.40;0.38;;;3.60;99.90;;;;;;5014158;28;20498;-76
2022/02/01 04:13:04;;;;;;;0.40;0.20;;;3.60;99.90;;;;;;5031034;28;20470;-75
2022/02/01 04:15:30;;;;;;;0.40;0.40;;;3.60;99.90;;;;;;5030321;28;21092;-77
2022/02/01 04:17:57;;;;;;;0.40;0.30;;;3.50;99.90;;;;;;5031089;28;20898;-76
2022/02/01 04:20:23;;;;;;;0.40;0.20;;;3.40;99.90;;;;;;5030116;28;20825;-76
2022/02/01 04:22:49;;;;;;;0.40;0.20;;;3.40;99.90;;;;;;5030973;28;20460;-76
2022/02/01 04:25:15;;;;;;;0.40;0.30;;;3.40;99.90;;;;;;5030819;28;20421;-75
2022/02/01 04:27:42;;;;;;;0.40;0.20;;;3.40;99.90;;;;;;5030311;28;20387;-75
2022/02/01 04:30:12;;;;;;;0.40;0.30;;;3.40;99.90;;;;;;5029579;28;20403;-75
2022/02/01 04:32:40;;;;;;;0.40;0.30;;;3.40;99.90;;;;;;5030455;28;20398;-75
2022/02/01 04:35:09;;;;;;;0.40;0.20;;;3.40;99.90;;;;;;5031261;28;20403;-75
2022/02/01 04:37:35;;;;;;;0.40;0.20;;;3.40;99.90;;;;;;5030085;28;20909;-75
2022/02/01 04:40:01;;;;;;;0.40;0.30;;;3.40;99.90;;;;;;5013486;28;20395;-75
2022/02/01 04:42:33;;;;;;;0.40;0.20;;;3.60;99.90;;;;;;5029701;28;21068;-75
2022/02/01 04:44:59;;;;;;;0.40;0.28;;;3.60;99.90;;;;;;4993833;28;20814;-75
2022/02/01 04:47:32;;;;;;;0.40;0.30;;;3.60;99.90;;;;;;5011075;28;20407;-74
2022/02/01 04:49:59;;;;;;;0.40;0.20;;;3.60;99.90;;;;;;5011304;28;20405;-74
2022/02/01 04:52:25;;;;;;;0.40;0.20;;;3.60;99.90;;;;;;5011038;28;20869;-72
2022/02/01 04:54:50;;;;;;;0.40;0.20;;;3.60;99.90;;;;;;5010168;28;20396;-74
2022/02/01 04:57:16;;;;;;;0.40;0.20;;;3.60;99.90;;;;;;5011382;28;20415;-76
2022/02/01 04:59:42;;;;;;;0.40;0.20;;;3.60;99.90;;;;;;5010171;28;20389;-74
2022/02/01 05:02:07;;;;;;;0.40;0.20;;;3.50;99.90;;;;;;5011171;28;20442;-74
2022/02/01 05:04:33;;;;;;;0.40;0.20;;;3.60;99.90;;;;;;5011157;28;20439;-75
2022/02/01 05:06:59;;;;;;;0.40;0.20;;;3.60;99.90;;;;;;5010158;28;20428;-74
2022/02/01 05:09:26;;;;;;;0.60;0.60;;;3.60;99.90;;;;;;5010598;28;20861;-74
2022/02/01 05:11:54;;;;;;;0.40;0.20;;;3.60;99.90;;;;;;5010009;28;20392;-75
2022/02/01 05:14:23;;;;;;;0.40;0.20;;;3.50;99.90;;;;;;5011147;28;20383;-74
2022/02/01 05:20:13;;;;;;;0.40;0.30;;;3.50;99.90;;;;;;5010934;28;20739;-75
2022/02/01 05:22:11;;;;;;;0.40;0.20;;;3.50;99.90;;;;;;4999296;28;20441;-75
2022/02/01 05:24:39;;;;;;;0.40;0.20;;;3.40;99.90;;;;;;4993982;28;20769;-74
2022/02/01 05:27:08;;;;;;;0.40;0.20;;;3.40;99.90;;;;;;5010173;28;20392;-76
2022/02/01 05:29:35;;;;;;;0.40;0.20;;;3.40;99.90;;;;;;4993305;28;20397;-77
2022/02/01 05:32:06;;;;;;;0.40;0.20;;;3.40;99.90;;;;;;4992564;28;20403;-75
2022/02/01 05:34:32;;;;;;;0.40;0.20;;;3.40;99.90;;;;;;4993298;28;20435;-76
2022/02/01 05:36:58;;;;;;;0.40;0.20;;;3.40;99.90;;;;;;5010412;28;20421;-75
2022/02/01 05:39:27;;;;;;;0.40;0.20;;;3.40;99.90;;;;;;5010215;28;20420;-74
2022/02/01 05:41:55;;;;;;;0.40;0.20;;;3.50;99.90;;;;;;5010755;28;20392;-75
2022/02/01 05:44:20;;;;;;;0.40;0.20;;;3.50;99.90;;;;;;5009825;28;20873;-74
2022/02/01 05:46:46;;;;;;;0.40;0.20;;;3.50;99.90;;;;;;5030010;28;20384;-75
2022/02/01 05:49:12;;;;;;;0.40;0.20;;;3.50;99.90;;;;;;5029906;28;20460;-74
2022/02/01 05:51:38;;;;;;;0.40;0.20;;;3.50;99.90;;;;;;5030455;28;20798;-74
2022/02/01 05:54:04;;;;;;;0.40;0.20;;;3.50;99.90;;;;;;5030246;28;20451;-74
2022/02/01 05:56:31;;;;;;;0.40;0.30;;;3.60;99.90;;;;;;5029326;28;20402;-73
2022/02/01 05:58:57;;;;;;;0.40;0.20;;;3.60;99.90;;;;;;5030308;28;20391;-74
2022/02/01 06:01:23;;;;;;;0.40;0.30;;;3.50;99.90;;;;;;5028433;28;20474;-73
2022/02/01 06:03:48;;;;;;;0.40;0.20;;;3.50;99.90;;;;;;5030414;28;20387;-75
2022/02/01 06:06:14;;;;;;;0.40;0.20;;;3.50;99.90;;;;;;5027439;28;20403;-75
2022/02/01 06:08:40;;;;;;;0.40;0.20;;;3.50;99.90;;;;;;5012148;28;20398;-73
2022/02/01 06:11:06;;;;;;;0.40;0.20;;;3.50;99.90;;;;;;5029413;28;20399;-73
2022/02/01 06:13:36;;;;;;;0.40;0.20;;;3.50;99.90;;;;;;5028619;28;20395;-73
2022/02/01 06:16:03;;;;;;;0.90;0.90;;;3.50;99.90;;;;;;5024161;28;20419;-74
2022/02/01 06:18:29;;;;;;;0.40;0.20;;;3.50;99.90;;;;;;5029205;28;20406;-73
2022/02/01 06:20:55;;;;;;;1.20;1.10;;;3.40;99.90;;;;;;5026942;28;20397;-74
2022/02/01 06:23:21;;;;;;;0.40;0.20;;;3.50;99.90;;;;;;5033675;28;20411;-74
2022/02/01 06:25:50;;;;;;;0.40;0.20;;;3.50;99.90;;;;;;5032679;28;20402;-73
2022/02/01 06:28:19;;;;;;;0.40;0.20;;;3.40;99.90;;;;;;5033306;28;20867;-72
2022/02/01 06:30:45;;;;;;;0.40;0.20;;;3.50;99.90;;;;;;5032385;28;20921;-72
2022/02/01 06:33:12;;;;;;;0.40;0.20;;;3.50;99.90;;;;;;5015979;28;20732;-73
2022/02/01 06:35:38;;;;;;;0.40;0.20;;;3.50;99.90;;;;;;5032832;28;20407;-73
2022/02/01 06:38:04;;;;;;;0.40;0.20;;;3.40;99.90;;;;;;5033294;28;20414;-74
2022/02/01 06:40:29;;;;;;;0.40;0.20;;;3.40;99.90;;;;;;5015599;28;20727;-74
2022/02/01 06:42:56;;;;;;;0.40;0.30;;;3.40;99.90;;;;;;5031963;28;20717;-74
2022/02/01 06:45:23;;;;;;;0.40;0.20;;;3.40;99.90;;;;;;5015323;28;20502;-74
2022/02/01 06:47:49;;;;;;;0.40;0.20;;;3.40;99.90;;;;;;5014590;28;20431;-75
2022/02/01 06:50:19;;;;;;;0.40;0.20;;;3.40;99.90;;;;;;5032908;28;20415;-74
2022/02/01 06:52:45;;;;;;;0.40;0.20;;;3.30;99.90;;;;;;5032533;28;20406;-75
2022/02/01 06:55:12;;;;;;;0.40;0.20;;;3.30;99.90;;;;;;5033158;28;20406;-75
2022/02/01 06:57:39;;;;;;;0.40;0.20;;;3.30;99.90;;;;;;5032996;28;20421;-75
2022/02/01 07:00:07;;;;;;;0.40;0.20;;;3.40;99.90;;;;;;5031957;28;20379;-75
2022/02/01 07:02:33;;;;;;;0.40;0.20;;;3.40;99.90;;;;;;5032628;28;20379;-75
2022/02/01 07:05:00;;;;;;;0.40;0.20;;;3.30;99.90;;;;;;5031736;28;20392;-75
2022/02/01 07:07:26;;;;;;;0.40;0.20;;;3.30;99.90;;;;;;5033051;28;20466;-76
2022/02/01 07:09:51;;;;;;;0.40;0.30;;;3.30;99.90;;;;;;5032833;28;20470;-72
2022/02/01 07:12:17;;;;;;;0.40;0.20;;;3.30;99.90;;;;;;5032055;28;20560;-75
2022/02/01 07:14:43;;;;;;;0.40;0.40;;;3.30;99.90;;;;;;5032802;28;20391;-74
2022/02/01 07:17:09;;;;;;;0.40;0.20;;;3.30;99.90;;;;;;5031803;28;20427;-75
2022/02/01 07:19:34;;;;;;;0.40;0.20;;;3.30;99.90;;;;;;5014891;28;20423;-75
2022/02/01 07:22:00;;;;;;;0.40;0.20;;;3.30;99.90;;;;;;5032217;28;20441;-75
2022/02/01 07:24:36;;;;;;;0.40;0.20;;;3.30;99.90;;;;;;5032422;28;20748;-74
2022/02/01 07:27:10;;;;;;;0.50;0.50;;;3.30;99.90;;;;;;5032904;28;20417;-75
2022/02/01 07:29:36;;;;;;;0.40;0.20;;;3.40;99.90;;;;;;5014845;28;20395;-74
2022/02/01 07:32:02;;;;;;;0.40;0.30;;;3.40;99.90;;;;;;5032162;28;20383;-74
2022/02/01 07:34:27;;;;;;;0.40;0.20;;;3.30;99.90;;;;;;5029139;28;20890;-73
2022/02/01 07:36:53;;;;;;;0.40;0.20;;;3.30;99.90;;;;;;5032090;28;20431;-73
2022/02/01 07:39:19;;;;;;;0.40;0.20;;;3.30;99.90;;;;;;5031437;28;20480;-74
2022/02/01 07:41:44;;;;;;;0.40;0.20;;;3.20;99.90;;;;;;5031690;28;20501;-74
2022/02/01 07:44:10;;;;;;;0.40;0.20;;;3.30;99.90;;;;;;5032510;28;20384;-74
2022/02/01 07:46:36;;;;;;;0.80;0.50;;;3.20;99.90;;;;;;5031192;28;20390;-73
2022/02/01 07:49:03;;;;;;;0.40;0.20;;;3.30;99.90;;;;;;5032289;28;20406;-74
2022/02/01 07:51:28;;;;;;;0.40;0.20;;;3.20;99.90;;;;;;5031194;28;20474;-73
2022/02/01 07:53:54;;;;;;;0.40;0.30;;;3.10;99.90;;;;;;5032080;28;20541;-74
2022/02/01 07:56:20;;;;;;;0.40;0.30;;;3.10;99.90;;;;;;5031361;28;20406;-74
2022/02/01 07:58:46;;;;;;;0.40;0.20;;;3.20;99.90;;;;;;5031352;28;20391;-73
2022/02/01 08:01:12;;;;;;;0.40;0.40;;;3.20;99.90;;;;;;5014203;28;20982;-73
2022/02/01 08:03:40;;;;;;;0.40;0.20;;;3.20;99.90;;;;;;5030824;28;20411;-73
2022/02/01 08:06:05;;;;;;;0.40;0.20;;;3.10;99.90;;;;;;5031604;28;20760;-74
2022/02/01 08:08:31;;;;;;;0.40;0.30;;;3.20;99.90;;;;;;5030753;28;20384;-73
2022/02/01 08:10:57;;;;;;;0.40;0.20;;;3.10;99.90;;;;;;5031623;28;20385;-74
2022/02/01 08:21:24;;;;;;;0.40;0.20;;;3.10;99.90;;;;;;5031608;28;20385;-74
2022/02/01 08:23:49;;;;;;;0.40;0.20;;;3.00;99.90;;;;;;5030650;28;20383;-74
2022/02/01 08:26:15;;;;;;;0.40;0.20;;;3.10;99.90;;;;;;5013821;28;20387;-75
2022/02/01 08:28:41;;;;;;;0.40;0.20;;;3.10;99.90;;;;;;5030166;28;20441;-74
2022/02/01 08:31:09;;;;;;;0.40;0.20;;;3.00;99.90;;;;;;5031013;28;20456;-73
2022/02/01 08:33:36;;;;;;;0.40;0.30;;;2.90;99.90;;;;;;5031051;28;20379;-74
2022/02/01 08:36:02;;;;;;;0.40;0.20;;;3.00;99.90;;;;;;5030290;28;20441;-74
2022/02/01 08:38:27;;;;;;;0.40;0.20;;;2.90;99.90;;;;;;5012877;28;20494;-74
2022/02/01 08:40:53;;;;;;;0.40;0.30;;;2.80;99.90;;;;;;5030612;28;20731;-75
2022/02/01 08:43:19;;;;;;;0.40;0.20;;;2.90;99.90;;;;;;5031227;28;20375;-74
2022/02/01 08:45:48;;;;;;;0.40;0.20;;;2.80;99.90;;;;;;5030323;28;20395;-76
2022/02/01 08:48:14;;;;;;;0.40;0.20;;;2.80;99.90;;;;;;5029942;28;20482;-75
2022/02/01 08:50:40;;;;;;;0.40;0.20;;;3.00;99.90;;;;;;5031207;28;20478;-73
2022/02/01 08:53:19;;;;;;;0.40;0.30;;;3.10;99.90;;;;;;5030092;28;20449;-74
2022/02/01 08:58:21;;;;;;;0.40;0.20;;;3.10;99.90;;;;;;5030213;28;20554;-74
2022/02/01 09:00:47;;;;;;;0.80;0.80;;;3.10;99.90;;;;;;5030957;28;20478;-74
2022/02/01 09:03:14;;;;;;;0.40;0.30;;;3.10;99.90;;;;;;5029055;28;20863;-74
2022/02/01 09:05:41;;;;;;;0.40;0.20;;;3.20;99.90;;;;;;5031193;28;20793;-74
2022/02/01 09:08:07;;;;;;;0.40;0.30;;;3.40;99.90;;;;;;5029847;28;20398;-74
2022/02/01 09:10:33;;;;;;;0.40;0.20;;;3.50;99.90;;;;;;5030693;28;20866;-74
2022/02/01 09:13:02;;;;;;;0.40;0.20;;;3.60;99.90;;;;;;5031066;28;20820;-73
2022/02/01 09:15:28;;;;;;;0.40;0.20;;;3.60;99.90;;;;;;5029696;28;20414;-73
2022/02/01 09:17:56;;;;;;;0.40;0.22;;;3.50;99.90;;;;;;5030779;28;20478;-74
2022/02/01 09:20:24;;;;;;;0.40;0.30;;;3.60;99.90;;;;;;5030055;28;20383;-74
2022/02/01 09:22:50;;;;;;;0.40;0.30;;;3.60;99.90;;;;;;5030655;28;20867;-73
2022/02/01 09:25:17;;;;;;;0.40;0.20;;;3.60;99.90;;;;;;5030694;28;20810;-74
2022/02/01 09:27:52;;;;;;;0.60;0.60;;;3.70;99.90;;;;;;5030149;28;20391;-72
2022/02/01 09:30:20;;;;;;;0.40;0.20;;;3.60;99.90;;;;;;5030882;28;20442;-74
2022/02/01 09:32:46;;;;;;;0.40;0.30;;;3.50;99.90;;;;;;5030037;28;20395;-73
2022/02/01 09:35:12;;;;;;;0.40;0.40;;;3.60;99.90;;;;;;5030402;28;20849;-74
2022/02/01 09:37:38;;;;;;;0.40;0.20;;;3.70;99.90;;;;;;5029704;28;20403;-74
2022/02/01 09:40:06;;;;;;;0.40;0.20;;;3.70;99.90;;;;;;5030622;28;20748;-75
2022/02/01 09:42:36;;;;;;;0.40;0.20;;;3.60;99.90;;;;;;5029662;28;20871;-75
2022/02/01 09:45:02;;;;;;;0.40;0.20;;;3.70;99.90;;;;;;5030500;28;20384;-75
2022/02/01 09:47:34;;;;;;;0.40;0.20;;;3.60;99.90;;;;;;5029741;28;20449;-74
2022/02/01 09:50:00;;;;;;;0.40;0.20;;;3.60;99.90;;;;;;5030861;28;20383;-74
2022/02/01 09:52:28;;;;;;;0.40;0.20;;;3.60;99.90;;;;;;5030534;28;20393;-74
2022/02/01 09:54:54;;;;;;;0.40;0.20;;;3.60;99.90;;;;;;5029712;28;20375;-73
2022/02/01 09:57:23;;;;;;;0.40;0.22;;;3.60;99.90;;;;;;5015243;28;20418;-73
2022/02/01 09:59:53;;;;;;;0.40;0.20;;;3.60;99.90;;;;;;5033170;28;20394;-74
2022/02/01 10:02:20;;;;;;;0.40;0.20;;;3.50;99.90;;;;;;5034315;28;20406;-74
2022/02/01 10:05:00;;;;;;;0.40;0.20;;;3.50;99.90;;;;;;5033257;28;20871;-73
2022/02/01 10:07:25;;;;;;;0.40;0.30;;;3.70;99.90;;;;;;5034092;28;20387;-74
2022/02/01 10:09:57;;;;;;;0.40;0.20;;;3.50;99.90;;;;;;5033026;28;20856;-72
2022/02/01 10:12:26;;;;;;;0.40;0.30;;;3.40;99.90;;;;;;5034134;28;20390;-73
2022/02/01 10:14:55;;;;;;;0.40;0.30;;;3.50;99.90;;;;;;5033178;28;20384;-74
2022/02/01 10:17:50;;;;;;;0.40;0.20;;;3.60;99.90;;;;;;5016616;28;20897;-74
2022/02/01 10:20:17;;;;;;;0.40;0.20;;;3.50;99.90;;;;;;5033235;28;20461;-74
2022/02/01 10:22:44;;;;;;;0.40;0.30;;;3.60;99.90;;;;;;5033327;28;20390;-75
2022/02/01 10:25:39;;;;;;;0.40;0.20;;;3.60;99.90;;;;;;5032972;28;20384;-73
2022/02/01 10:28:05;;;;;;;0.40;0.20;;;3.60;99.90;;;;;;4998047;28;20395;-72
2022/02/01 10:30:39;;;;;;;0.40;0.20;;;3.70;99.90;;;;;;5033241;28;20417;-74
2022/02/01 10:33:42;;;;;;;0.40;0.20;;;3.70;99.90;;;;;;5031722;28;20391;-73
2022/02/01 10:36:07;;;;;;;0.40;0.20;;;3.70;99.90;;;;;;5032565;28;20418;-74
2022/02/01 10:38:34;;;;;;;0.40;0.20;;;3.70;99.90;;;;;;5033615;28;20441;-71
2022/02/01 10:41:01;;;;;;;0.40;0.20;;;3.70;99.90;;;;;;5033388;28;20421;-74
2022/02/01 10:43:28;;;;;;;0.40;0.20;;;3.60;99.90;;;;;;5031296;28;20395;-73
2022/02/01 10:46:01;;;;;;;0.40;0.30;;;3.60;99.90;;;;;;5033103;28;20883;-74
2022/02/01 10:48:27;;;;;;;0.40;0.20;;;3.60;99.90;;;;;;5032705;28;20482;-74
2022/02/01 10:51:12;;;;;;;0.40;0.30;;;3.60;99.90;;;;;;5031840;28;20391;-73
2022/02/01 10:53:38;;;;;;;0.40;0.20;;;3.60;99.90;;;;;;5031126;28;20476;-73
2022/02/01 10:56:07;;;;;;;0.40;0.20;;;3.50;99.90;;;;;;5033241;28;20419;-73
2022/02/01 10:58:33;;;;;;;0.40;0.20;;;3.60;99.90;;;;;;5032064;28;20871;-73
2022/02/01 11:01:00;;;;;;;0.40;0.20;;;3.50;99.90;;;;;;5031893;28;20910;-73
2022/02/01 11:03:26;;;;;;;0.40;0.20;;;3.40;99.90;;;;;;5032170;28;20387;-72
2022/02/01 11:05:53;;;;;;;0.40;0.20;;;3.50;99.90;;;;;;5032732;28;20387;-74
2022/02/01 11:08:29;;;;;;;0.40;0.20;;;3.40;99.90;;;;;;5031738;28;20380;-75
2022/02/01 11:10:57;;;;;;;0.70;0.70;;;3.50;99.90;;;;;;5031701;28;20402;-75
2022/02/01 11:13:34;;;;;;;0.40;0.20;;;3.40;99.90;;;;;;5032819;28;20419;-74
2022/02/01 11:16:03;;;;;;;0.60;0.60;;;3.50;99.90;;;;;;5032613;28;20860;-73
2022/02/01 11:18:30;;;;;;;0.40;0.20;;;3.50;99.90;;;;;;5032025;28;20725;-73
2022/02/01 11:21:05;;;;;;;0.40;0.20;;;3.50;99.90;;;;;;5032812;28;20418;-73
2022/02/01 11:23:45;;;;;;;0.40;0.20;;;3.40;99.90;;;;;;5032534;28;20744;-73
2022/02/01 11:26:50;;;;;;;0.40;0.20;;;3.50;99.90;;;;;;5032881;28;20915;-73
2022/02/01 11:31:55;;;;;;;0.40;0.20;;;3.30;99.90;;;;;;5031803;28;20378;-74
2022/02/01 11:34:37;;;;;;;0.40;0.20;;;3.30;99.90;;;;;;5032201;28;20388;-74
2022/02/01 11:37:07;;;;;;;0.40;0.20;;;3.40;99.90;;;;;;5031427;28;20496;-74
2022/02/01 11:39:33;;;;;;;0.40;0.20;;;3.50;99.90;;;;;;5032273;28;20391;-74
2022/02/01 11:42:11;;;;;;;0.40;0.20;;;3.40;99.90;;;;;;5031325;28;20384;-74
2022/02/01 11:44:37;;;;;;;0.40;0.20;;;3.40;99.90;;;;;;5031911;28;20387;-74
2022/02/01 11:47:15;;;;;;;0.40;0.20;;;3.40;99.90;;;;;;5030040;28;20466;-74
2022/02/01 11:49:56;;;;;;;0.40;0.20;;;3.30;99.90;;;;;;5031881;28;20852;-74
2022/02/01 11:52:24;;;;;;;0.40;0.20;;;3.40;99.90;;;;;;5032037;28;20410;-75
2022/02/01 11:55:02;;;;;;;0.40;0.20;;;3.40;99.90;;;;;;5031470;28;20390;-73
2022/02/01 11:57:30;;;;;;;0.40;0.30;;;3.30;99.90;;;;;;5031937;28;20437;-74
2022/02/01 12:00:00;;;;;;;0.40;0.20;;;3.30;99.90;;;;;;5031258;28;20375;-72
2022/02/01 12:02:39;;;;;;;0.40;0.20;;;3.30;99.90;;;;;;5032073;28;20804;-73
2022/02/01 12:05:16;;;;;;;0.40;0.20;;;3.30;99.90;;;;;;5030800;28;20816;-73
2022/02/01 12:08:01;;;;;;;0.40;0.20;;;3.40;99.90;;;;;;5031950;28;20744;-73
2022/02/01 12:10:27;;;;;;;0.40;0.20;;;3.50;99.90;;;;;;5031794;28;20436;-74
2022/02/01 12:12:57;;;;;;;0.40;0.20;;;3.40;99.90;;;;;;5031218;28;20868;-73
2022/02/01 12:15:32;;;;;;;0.40;0.20;;;3.50;99.90;;;;;;5031017;28;20648;-72
2022/02/01 12:18:07;;;;;;;0.40;0.20;;;3.60;99.90;;;;;;5031523;28;20486;-74
2022/02/01 12:20:36;;;;;;;0.40;0.20;;;3.60;99.90;;;;;;5031237;28;20465;-73
2022/02/01 12:23:20;;;;;;;0.40;0.20;;;3.50;99.90;;;;;;5031529;28;20374;-74
2022/02/01 12:25:46;;;;;;;0.40;0.20;;;3.70;99.90;;;;;;5031509;28;20387;-74
2022/02/01 12:28:15;;;;;;;0.40;0.20;;;3.60;99.90;;;;;;5012916;28;20891;-74
2022/02/01 12:30:41;;;;;;;0.40;0.20;;;3.50;99.90;;;;;;5031358;28;20384;-74
2022/02/01 12:33:18;;;;;;;0.40;0.20;;;3.50;99.90;;;;;;5031475;28;20383;-74
2022/02/01 12:35:44;;;;;;;0.40;0.20;;;3.60;99.90;;;;;;5031208;28;20510;-75
2022/02/01 12:38:18;;;;;;;0.40;0.20;;;3.60;99.90;;;;;;5031016;28;20735;-73
2022/02/01 12:40:45;;;;;;;0.40;0.20;;;3.70;99.90;;;;;;5031059;28;20478;-74
2022/02/01 12:43:19;;;;;;;0.40;0.20;;;3.60;99.90;;;;;;5031237;28;20478;-74
2022/02/01 12:46:29;;;;;;;0.40;0.20;;;3.70;99.90;;;;;;5030617;28;20395;-74
2022/02/01 12:48:51;;;;;;;0.40;0.20;;;3.70;99.90;;;;;;5030880;28;20458;-74
2022/02/01 12:51:17;;;;;;;0.40;0.20;;;3.70;99.90;;;;;;5029177;28;20879;-74
2022/02/01 12:53:48;;;;;;;0.40;0.20;;;3.80;99.90;;;;;;5030206;28;20387;-72
2022/02/01 12:56:20;;;;;;;0.40;0.30;;;3.60;99.90;;;;;;5030898;28;20922;-74
2022/02/01 12:58:57;;;;;;;0.40;0.20;;;3.70;99.90;;;;;;5030046;28;20391;-75
2022/02/01 13:01:39;;;;;;;0.40;0.20;;;3.80;99.90;;;;;;5030907;28;20387;-75
2022/02/01 13:04:06;;;;;;;0.40;0.20;;;3.80;99.90;;;;;;5030781;28;20379;-74
2022/02/01 13:06:37;;;;;;;0.40;0.30;;;3.90;99.90;;;;;;5030478;28;20394;-73
2022/02/01 13:14:55;;;;;;;0.40;0.20;;;3.80;99.90;;;;;;5030446;28;20909;-74
2022/02/01 13:17:59;;;;;;;0.50;0.50;;;3.80;99.90;;;;;;5029335;28;20436;-74
2022/02/01 13:20:25;;;;;;;0.40;0.20;;;3.80;99.90;;;;;;5030776;28;20431;-74
2022/02/01 13:22:54;;;;;;;0.40;0.30;;;3.80;99.90;;;;;;5029998;28;20380;-72
2022/02/01 13:25:35;;;;;;;0.40;0.20;;;3.90;99.90;;;;;;5030598;28;20444;-74
2022/02/01 13:28:05;;;;;;;0.60;0.50;;;3.90;99.90;;;;;;5029906;28;20391;-73
2022/02/01 13:30:34;;;;;;;0.40;0.20;;;4.00;99.90;;;;;;5030584;28;20701;-74
2022/02/01 13:33:09;;;;;;;0.40;0.30;;;4.00;99.90;;;;;;5033585;28;20466;-75
2022/02/01 13:35:50;;;;;;;0.40;0.30;;;4.00;99.90;;;;;;5033841;28;20405;-75
2022/02/01 13:38:18;;;;;;;0.40;0.30;;;4.10;99.90;;;;;;5035937;28;20825;-75
2022/02/01 13:40:43;;;;;;;0.40;0.20;;;4.00;99.90;;;;;;5043491;28;20507;-75
2022/02/01 13:43:25;;;;;;;0.40;0.30;;;4.00;99.90;;;;;;5023464;28;20596;-76
2022/02/01 13:45:53;;;;;;;0.40;0.20;;;4.10;99.90;;;;;;5040728;28;20869;-75
2022/02/01 13:48:25;;;;;;;0.40;0.20;;;4.10;99.90;;;;;;5042184;28;20445;-74
2022/02/01 13:50:54;;;;;;;0.40;0.20;;;4.10;99.90;;;;;;5044140;28;20377;-74
2022/02/01 13:53:21;;;;;;;0.40;0.20;;;4.00;99.90;;;;;;5007885;28;20397;-75
2022/02/01 13:56:15;;;;;;;0.40;0.20;;;4.10;99.90;;;;;;5043528;28;20413;-75
2022/02/01 13:58:43;;;;;;;0.40;0.20;;;4.10;99.90;;;;;;5037877;28;20386;-75
2022/02/01 14:01:17;;;;;;;0.40;0.20;;;4.20;99.90;;;;;;5043679;28;20382;-75
2022/02/01 14:03:52;;;;;;;0.40;0.20;;;4.30;99.90;;;;;;5037369;28;20722;-76
2022/02/01 14:06:28;;;;;;;0.40;0.20;;;4.20;99.90;;;;;;5036935;28;20403;-74
2022/02/01 14:22:24;;;;;;;0.40;0.20;;;4.30;99.90;;;;;;5039862;28;20467;-74
2022/02/01 14:34:47;;;;;;;0.40;0.40;;;4.40;99.90;;;;;;5039958;28;20431;-75
2022/02/01 14:37:17;;;;;;;0.40;0.30;;;4.50;99.90;;;;;;5039082;28;20428;-75
2022/02/01 14:45:14;;;;;;;0.60;0.60;;;4.60;99.90;;;;;;5035879;28;20421;-75
2022/02/01 14:47:40;;;;;;;0.40;0.20;;;4.50;99.90;;;;;;5039773;28;20865;-74
2022/02/01 14:50:07;;;;;;;0.40;0.20;;;4.60;99.90;;;;;;5042451;28;20384;-75
2022/02/01 14:52:34;;;;;;;0.50;0.50;;;4.60;99.90;;;;;;5041648;28;20862;-75
2022/02/01 14:55:08;;;;;;;0.40;0.20;;;4.50;99.90;;;;;;5039476;28;20391;-74
2022/02/01 15:13:49;;;;;;;0.40;0.20;;;4.50;99.90;;;;;;5041192;28;20374;-73
2022/02/01 15:16:16;;;;;;;0.40;0.20;;;4.60;99.90;;;;;;5038493;28;20967;-75
2022/02/01 15:18:44;;;;;;;0.40;0.30;;;4.50;99.90;;;;;;5041051;28;20401;-73
2022/02/01 15:21:11;;;;;;;0.40;0.20;;;4.50;99.90;;;;;;5041053;28;20386;-73
2022/02/01 15:23:37;;;;;;;0.40;0.20;;;4.40;99.90;;;;;;5038116;28;20445;-75
2022/02/01 15:26:04;;;;;;;0.40;0.20;;;4.50;99.90;;;;;;5041202;28;20572;-74
2022/02/01 15:28:31;;;;;;;0.40;0.30;;;4.50;99.90;;;;;;5040016;28;20464;-75
2022/02/01 15:31:02;;;;;;;0.40;0.30;;;4.50;99.90;;;;;;5039138;28;20478;-74